createdAt,value
2023-03-05T00:00:04.579Z,21.73
2023-03-05T00:02:53.254Z,21.72
2023-03-05T00:05:26.502Z,21.70
2023-03-05T00:07:57.066Z,21.71
2023-03-05T00:10:44.782Z,21.69
2023-03-05T00:13:25.372Z,21.69
2023-03-05T00:16:20.095Z,21.67
2023-03-05T00:18:52.671Z,21.66
2023-03-05T00:21:34.282Z,21.66
2023-03-05T00:24:09.237Z,21.65
2023-03-05T00:26:40.743Z,21.64
2023-03-05T00:29:18.910Z,21.62
2023-03-05T00:31:51.692Z,21.63
2023-03-05T00:34:23.007Z,21.62
2023-03-05T00:36:55.935Z,21.60
2023-03-05T00:39:29.656Z,21.60
2023-03-05T00:41:59.364Z,21.59
2023-03-05T00:44:26.799Z,21.58
2023-03-05T00:46:55.825Z,21.56
2023-03-05T00:49:26.163Z,21.54
2023-03-05T00:51:56.385Z,21.53
2023-03-05T00:54:24.250Z,21.53
2023-03-05T00:56:57.047Z,21.53
2023-03-05T00:59:25.108Z,21.52
2023-03-05T01:01:55.289Z,21.51
2023-03-05T01:04:27.966Z,21.50
2023-03-05T01:06:55.498Z,21.49
2023-03-05T01:09:30.765Z,21.49
2023-03-05T01:12:01.127Z,21.48
2023-03-05T01:14:34.579Z,21.45
2023-03-05T01:17:01.962Z,21.47
2023-03-05T01:19:32.625Z,21.46
2023-03-05T01:22:04.501Z,21.45
2023-03-05T01:24:35.074Z,21.43
2023-03-05T01:27:03.560Z,21.44
2023-03-05T01:29:36.794Z,21.42
2023-03-05T01:32:07.325Z,21.42
2023-03-05T01:34:42.907Z,21.41
2023-03-05T01:37:13.156Z,21.39
2023-03-05T01:39:40.680Z,21.40
2023-03-05T01:42:07.887Z,21.40
2023-03-05T01:44:38.122Z,21.39
2023-03-05T01:47:05.532Z,21.39
2023-03-05T01:49:38.797Z,21.38
2023-03-05T01:52:20.423Z,21.35
2023-03-05T01:55:04.308Z,21.36
2023-03-05T01:57:58.084Z,21.33
2023-03-05T02:00:34.889Z,21.34
2023-03-05T02:03:07.575Z,21.33
2023-03-05T02:05:40.981Z,21.31
2023-03-05T02:08:13.632Z,21.32
2023-03-05T02:10:42.266Z,21.32
2023-03-05T02:13:19.970Z,21.31
2023-03-05T02:15:58.395Z,21.29
2023-03-05T02:18:33.194Z,21.28
2023-03-05T02:21:12.900Z,21.27
2023-03-05T02:23:44.489Z,21.28
2023-03-05T02:26:17.830Z,21.27
2023-03-05T02:28:49.921Z,21.25
2023-03-05T02:31:26.449Z,21.25
2023-03-05T02:33:56.726Z,21.24
2023-03-05T02:36:28.589Z,21.23
2023-03-05T02:38:56.528Z,21.22
2023-03-05T02:41:27.121Z,21.21
2023-03-05T02:44:03.643Z,21.21
2023-03-05T02:46:36.658Z,21.21
2023-03-05T02:49:10.729Z,21.20
2023-03-05T02:51:42.295Z,21.22
2023-03-05T02:54:12.597Z,21.18
2023-03-05T02:56:40.411Z,21.18
2023-03-05T02:59:10.177Z,21.16
2023-03-05T03:01:40.624Z,21.16
2023-03-05T03:04:08.468Z,21.15
2023-03-05T03:06:39.552Z,21.15
2023-03-05T03:09:09.985Z,21.13
2023-03-05T03:11:40.808Z,21.12
2023-03-05T03:14:14.506Z,21.11
2023-03-05T03:16:51.568Z,21.11
2023-03-05T03:19:22.572Z,21.09
2023-03-05T03:21:52.538Z,21.09
2023-03-05T03:24:23.303Z,21.08
2023-03-05T03:26:53.739Z,21.08
2023-03-05T03:29:27.446Z,21.07
2023-03-05T03:32:01.494Z,21.07
2023-03-05T03:34:34.437Z,21.07
2023-03-05T03:37:04.762Z,21.06
2023-03-05T03:39:35.717Z,21.04
2023-03-05T03:42:09.904Z,21.04
2023-03-05T03:44:43.065Z,21.03
2023-03-05T03:47:11.886Z,21.03
2023-03-05T03:49:42.263Z,21.02
2023-03-05T03:52:13.526Z,21.02
2023-03-05T03:54:46.279Z,21.01
2023-03-05T03:57:16.671Z,20.99
2023-03-05T03:59:57.173Z,20.99
2023-03-05T04:02:31.308Z,20.98
2023-03-05T04:05:05.468Z,20.96
2023-03-05T04:07:33.508Z,20.96
2023-03-05T04:10:06.194Z,20.95
2023-03-05T04:12:42.170Z,20.93
2023-03-05T04:15:12.420Z,20.94
2023-03-05T04:17:43.080Z,20.93
2023-03-05T04:20:15.326Z,20.92
2023-03-05T04:22:51.503Z,20.91
2023-03-05T04:25:26.178Z,20.91
2023-03-05T04:27:56.727Z,20.90
2023-03-05T04:30:30.486Z,20.88
2023-03-05T04:33:01.194Z,20.87
2023-03-05T04:35:30.626Z,20.87
2023-03-05T04:37:58.835Z,20.86
2023-03-05T04:40:33.575Z,20.86
2023-03-05T04:43:08.872Z,20.84
2023-03-05T04:45:42.505Z,20.86
2023-03-05T04:48:16.273Z,20.83
2023-03-05T04:50:46.781Z,20.83
2023-03-05T04:53:18.914Z,20.82
2023-03-05T04:55:46.504Z,20.82
2023-03-05T04:58:19.651Z,20.80
2023-03-05T05:00:50.469Z,20.79
2023-03-05T05:03:21.527Z,20.80
2023-03-05T05:05:59.376Z,20.78
2023-03-05T05:08:32.920Z,20.76
2023-03-05T05:11:07.493Z,20.76
2023-03-05T05:13:44.557Z,20.75
2023-03-05T05:16:14.201Z,20.73
2023-03-05T05:18:42.050Z,20.74
2023-03-05T05:21:13.264Z,20.73
2023-03-05T05:23:46.991Z,20.70
2023-03-05T05:26:17.943Z,20.68
2023-03-05T05:28:48.061Z,20.67
2023-03-05T05:31:18.621Z,20.66
2023-03-05T05:33:50.110Z,20.64
2023-03-05T05:36:19.316Z,20.62
2023-03-05T05:39:26.850Z,20.59
2023-03-05T05:42:19.687Z,20.57
2023-03-05T05:44:53.172Z,20.57
2023-03-05T05:47:33.086Z,20.58
2023-03-05T05:50:13.105Z,20.52
2023-03-05T05:52:43.419Z,20.44
2023-03-05T05:55:17.264Z,20.42
2023-03-05T05:57:44.871Z,20.39
2023-03-05T06:00:15.937Z,20.39
2023-03-05T06:02:45.250Z,20.39
2023-03-05T06:05:17.706Z,20.42
2023-03-05T06:07:49.187Z,20.45
2023-03-05T06:10:19.426Z,20.50
2023-03-05T06:12:52.637Z,20.54
2023-03-05T06:15:23.095Z,20.57
2023-03-05T06:17:52.995Z,20.59
2023-03-05T06:20:22.017Z,20.59
2023-03-05T06:22:49.484Z,20.62
2023-03-05T06:25:16.428Z,20.63
2023-03-05T06:27:52.844Z,20.66
2023-03-05T06:30:28.429Z,20.70
2023-03-05T06:32:55.969Z,20.75
2023-03-05T06:35:23.406Z,20.74
2023-03-05T06:37:51.296Z,20.76
2023-03-05T06:40:32.770Z,20.79
2023-03-05T06:43:09.412Z,20.82
2023-03-05T06:45:43.149Z,20.81
2023-03-05T06:48:14.032Z,20.84
2023-03-05T06:50:44.019Z,20.87
2023-03-05T06:53:14.863Z,20.90
2023-03-05T06:55:45.618Z,20.93
2023-03-05T06:58:19.096Z,20.93
2023-03-05T07:00:49.941Z,20.93
2023-03-05T07:03:18.941Z,20.96
2023-03-05T07:05:49.871Z,20.99
2023-03-05T07:08:21.079Z,21.02
2023-03-05T07:10:50.958Z,21.03
2023-03-05T07:13:21.453Z,21.04
2023-03-05T07:15:55.004Z,21.05
2023-03-05T07:18:26.662Z,21.08
2023-03-05T07:20:59.324Z,21.11
2023-03-05T07:23:30.617Z,21.15
2023-03-05T07:25:58.107Z,21.15
2023-03-05T07:28:26.457Z,21.17
2023-03-05T07:31:05.973Z,21.18
2023-03-05T07:33:33.778Z,21.20
2023-03-05T07:36:04.914Z,21.22
2023-03-05T07:38:33.057Z,21.21
2023-03-05T07:41:08.972Z,21.20
2023-03-05T07:43:39.691Z,21.25
2023-03-05T07:46:14.690Z,21.26
2023-03-05T07:48:46.082Z,21.28
2023-03-05T07:51:15.739Z,21.25
2023-03-05T07:53:46.909Z,21.30
2023-03-05T07:56:24.688Z,21.28
2023-03-05T07:58:51.749Z,21.29
2023-03-05T08:01:19.557Z,21.32
2023-03-05T08:03:58.386Z,21.33
2023-03-05T08:06:26.127Z,21.30
2023-03-05T08:09:00.671Z,21.32
2023-03-05T08:11:28.612Z,21.34
2023-03-05T08:13:55.694Z,21.36
2023-03-05T08:16:23.080Z,21.37
2023-03-05T08:18:57.286Z,21.38
2023-03-05T08:21:30.572Z,21.40
2023-03-05T08:24:02.702Z,21.41
2023-03-05T08:26:31.509Z,21.43
2023-03-05T08:29:02.359Z,21.43
2023-03-05T08:31:30.119Z,21.45
2023-03-05T08:34:04.720Z,21.46
2023-03-05T08:36:32.808Z,21.46
2023-03-05T08:39:00.307Z,21.47
2023-03-05T08:41:30.484Z,21.48
2023-03-05T08:43:57.430Z,21.50
2023-03-05T08:46:24.920Z,21.51
2023-03-05T08:48:52.338Z,21.52
2023-03-05T08:51:26.368Z,21.54
2023-03-05T08:53:55.793Z,21.54
2023-03-05T08:56:31.726Z,21.56
2023-03-05T08:58:59.024Z,21.58
2023-03-05T09:01:26.790Z,21.60
2023-03-05T09:04:01.802Z,21.61
2023-03-05T09:06:31.949Z,21.63
2023-03-05T09:09:03.697Z,21.64
2023-03-05T09:11:33.831Z,21.65
2023-03-05T09:14:08.088Z,21.67
2023-03-05T09:16:44.605Z,21.69
2023-03-05T09:19:12.269Z,21.69
2023-03-05T09:21:51.646Z,21.69
2023-03-05T09:24:19.676Z,21.69
2023-03-05T09:26:50.082Z,21.72
2023-03-05T09:29:23.657Z,21.73
2023-03-05T09:31:54.901Z,21.71
2023-03-05T09:34:31.739Z,21.67
2023-03-05T09:37:01.996Z,21.65
2023-03-05T09:39:38.051Z,21.63
2023-03-05T09:42:25.375Z,21.60
2023-03-05T09:45:04.142Z,21.58
2023-03-05T09:47:44.606Z,21.55
2023-03-05T09:50:28.990Z,21.55
2023-03-05T09:53:05.026Z,21.55
2023-03-05T09:55:40.618Z,21.54
2023-03-05T09:58:22.964Z,21.56
2023-03-05T10:01:14.731Z,21.55
2023-03-05T10:04:05.416Z,21.56
2023-03-05T10:07:12.667Z,21.55
2023-03-05T10:09:55.821Z,21.55
2023-03-05T10:12:40.665Z,21.57
2023-03-05T10:15:22.321Z,21.60
2023-03-05T10:18:13.655Z,21.58
2023-03-05T10:20:51.580Z,21.58
2023-03-05T10:23:24.723Z,21.58
2023-03-05T10:26:20.512Z,21.58
2023-03-05T10:29:23.182Z,21.57
2023-03-05T10:32:17.834Z,21.58
2023-03-05T10:34:51.013Z,21.57
2023-03-05T10:37:39.219Z,21.58
2023-03-05T10:40:16.441Z,21.56
2023-03-05T10:43:18.143Z,21.55
2023-03-05T10:45:51.608Z,21.54
2023-03-05T10:48:42.998Z,21.55
2023-03-05T10:51:15.790Z,21.53
2023-03-05T10:53:59.718Z,21.53
2023-03-05T10:56:35.926Z,21.53
2023-03-05T10:59:05.839Z,21.53
2023-03-05T11:01:36.075Z,21.54
2023-03-05T11:04:28.526Z,21.55
2023-03-05T11:06:58.832Z,21.55
2023-03-05T11:09:31.715Z,21.57
2023-03-05T11:12:07.534Z,21.56
2023-03-05T11:14:37.420Z,21.56
2023-03-05T11:17:31.600Z,21.58
2023-03-05T11:20:27.341Z,21.58
2023-03-05T11:23:12.614Z,21.59
2023-03-05T11:25:57.865Z,21.60
2023-03-05T11:28:38.291Z,21.58
2023-03-05T11:31:20.029Z,21.59
2023-03-05T11:34:06.882Z,21.61
2023-03-05T11:36:42.548Z,21.60
2023-03-05T11:39:17.550Z,21.60
2023-03-05T11:42:11.911Z,21.58
2023-03-05T11:44:50.585Z,21.56
2023-03-05T11:47:21.068Z,21.53
2023-03-05T11:49:54.023Z,21.57
2023-03-05T11:52:45.015Z,21.58
2023-03-05T11:55:25.872Z,21.61
2023-03-05T11:58:09.693Z,21.64
2023-03-05T12:00:42.527Z,21.65
2023-03-05T12:03:22.192Z,21.70
2023-03-05T12:06:00.050Z,21.72
2023-03-05T12:08:38.838Z,21.75
2023-03-05T12:11:30.673Z,21.79
2023-03-05T12:14:10.946Z,21.82
2023-03-05T12:17:12.474Z,21.85
2023-03-05T12:20:01.213Z,21.87
2023-03-05T12:22:40.947Z,21.87
2023-03-05T12:25:32.753Z,21.89
2023-03-05T12:28:03.873Z,21.90
2023-03-05T12:30:48.901Z,21.89
2023-03-05T12:33:34.922Z,21.87
2023-03-05T12:36:23.207Z,21.87
2023-03-05T12:38:59.832Z,21.88
2023-03-05T12:41:39.160Z,21.87
2023-03-05T12:44:08.790Z,21.86
2023-03-05T12:46:40.578Z,21.84
2023-03-05T12:49:29.369Z,21.84
2023-03-05T12:52:31.612Z,21.82
2023-03-05T12:55:34.363Z,21.81
2023-03-05T12:58:18.563Z,21.77
2023-03-05T13:00:57.066Z,21.77
2023-03-05T13:03:39.575Z,21.74
2023-03-05T13:06:33.614Z,21.73
2023-03-05T13:09:27.101Z,21.72
2023-03-05T13:12:10.713Z,21.70
2023-03-05T13:15:01.993Z,21.72
2023-03-05T13:18:01.452Z,21.69
2023-03-05T13:21:12.356Z,21.68
2023-03-05T13:24:03.770Z,21.65
2023-03-05T13:26:54.528Z,21.63
2023-03-05T13:29:53.135Z,21.63
2023-03-05T13:32:37.745Z,21.61
2023-03-05T13:35:42.632Z,21.60
2023-03-05T13:38:50.108Z,21.59
2023-03-05T13:41:40.774Z,21.58
2023-03-05T13:44:38.235Z,21.56
2023-03-05T13:47:29.621Z,21.54
2023-03-05T13:50:24.221Z,21.53
2023-03-05T13:52:59.354Z,21.53
2023-03-05T13:55:52.201Z,21.53
2023-03-05T13:59:02.192Z,21.51
2023-03-05T14:01:38.251Z,21.50
2023-03-05T14:04:22.596Z,21.50
2023-03-05T14:07:00.862Z,21.49
2023-03-05T14:09:39.841Z,21.51
2023-03-05T14:12:30.172Z,21.50
2023-03-05T14:15:02.087Z,21.50
2023-03-05T14:17:42.785Z,21.49
2023-03-05T14:20:39.827Z,21.50
2023-03-05T14:23:27.356Z,21.49
2023-03-05T14:26:38.279Z,21.47
2023-03-05T14:29:16.731Z,21.45
2023-03-05T14:31:53.471Z,21.43
2023-03-05T14:34:43.631Z,21.43
2023-03-05T14:37:28.247Z,21.43
2023-03-05T14:40:01.369Z,21.43
2023-03-05T14:42:42.019Z,21.42
2023-03-05T14:45:16.269Z,21.41
2023-03-05T14:47:47.071Z,21.40
2023-03-05T14:50:22.522Z,21.42
2023-03-05T14:52:54.627Z,21.43
2023-03-05T14:55:33.833Z,21.43
2023-03-05T14:58:19.862Z,21.45
2023-03-05T15:00:53.899Z,21.42
2023-03-05T15:03:25.886Z,21.42
2023-03-05T15:05:55.999Z,21.39
2023-03-05T15:08:29.513Z,21.37
2023-03-05T15:11:00.592Z,21.31
2023-03-05T15:13:32.595Z,21.26
2023-03-05T15:16:01.448Z,21.21
2023-03-05T15:18:32.455Z,21.19
2023-03-05T15:21:09.083Z,21.17
2023-03-05T15:23:41.097Z,21.17
2023-03-05T15:26:12.888Z,21.19
2023-03-05T15:28:45.402Z,21.19
2023-03-05T15:31:19.292Z,21.20
2023-03-05T15:33:48.971Z,21.20
2023-03-05T15:36:16.303Z,21.22
2023-03-05T15:38:46.245Z,21.25
2023-03-05T15:41:16.616Z,21.26
2023-03-05T15:43:43.770Z,21.28
2023-03-05T15:46:13.996Z,21.27
2023-03-05T15:48:42.059Z,21.28
2023-03-05T15:51:18.898Z,21.28
2023-03-05T15:53:51.471Z,21.27
2023-03-05T15:56:24.805Z,21.27
2023-03-05T15:58:53.180Z,21.28
2023-03-05T16:01:23.799Z,21.28
2023-03-05T16:03:58.299Z,21.28
2023-03-05T16:06:26.614Z,21.28
2023-03-05T16:09:01.889Z,21.27
2023-03-05T16:11:34.419Z,21.28
2023-03-05T16:14:08.882Z,21.29
2023-03-05T16:16:37.635Z,21.29
2023-03-05T16:19:10.199Z,21.30
2023-03-05T16:21:40.577Z,21.30
2023-03-05T16:24:10.656Z,21.27
2023-03-05T16:26:43.961Z,21.28
2023-03-05T16:29:14.972Z,21.25
2023-03-05T16:31:42.365Z,21.24
2023-03-05T16:34:16.192Z,21.26
2023-03-05T16:36:53.428Z,21.26
2023-03-05T16:39:28.421Z,21.24
2023-03-05T16:41:55.664Z,21.25
2023-03-05T16:44:22.912Z,21.26
2023-03-05T16:46:53.232Z,21.27
2023-03-05T16:49:21.674Z,21.28
2023-03-05T16:52:06.232Z,21.31
2023-03-05T16:54:49.435Z,21.29
2023-03-05T16:57:17.175Z,21.27
2023-03-05T16:59:53.931Z,21.28
2023-03-05T17:02:21.456Z,21.26
2023-03-05T17:04:51.839Z,21.27
2023-03-05T17:07:27.168Z,21.27
2023-03-05T17:09:56.727Z,21.24
2023-03-05T17:12:27.289Z,21.21
2023-03-05T17:14:56.599Z,21.19
2023-03-05T17:17:30.258Z,21.18
2023-03-05T17:19:57.213Z,21.17
2023-03-05T17:22:25.532Z,21.18
2023-03-05T17:24:52.786Z,21.17
2023-03-05T17:27:25.932Z,21.17
2023-03-05T17:29:58.587Z,21.13
2023-03-05T17:32:31.683Z,21.15
2023-03-05T17:35:03.213Z,21.16
2023-03-05T17:37:38.072Z,21.15
2023-03-05T17:40:09.894Z,21.13
2023-03-05T17:42:36.759Z,21.14
2023-03-05T17:45:07.514Z,21.16
2023-03-05T17:47:39.879Z,21.15
2023-03-05T17:50:08.417Z,21.17
2023-03-05T17:52:44.556Z,21.16
2023-03-05T17:55:13.699Z,21.16
2023-03-05T17:57:48.497Z,21.17
2023-03-05T18:00:28.732Z,21.16
2023-03-05T18:02:59.596Z,21.15
2023-03-05T18:05:27.806Z,21.16
2023-03-05T18:07:57.666Z,21.16
2023-03-05T18:10:26.199Z,21.16
2023-03-05T18:12:56.153Z,21.11
2023-03-05T18:15:27.051Z,21.14
2023-03-05T18:17:54.979Z,21.12
2023-03-05T18:20:35.791Z,21.12
2023-03-05T18:23:08.582Z,21.11
2023-03-05T18:25:42.109Z,21.12
2023-03-05T18:28:14.001Z,21.12
2023-03-05T18:30:47.573Z,21.11
2023-03-05T18:33:30.246Z,21.11
2023-03-05T18:36:15.089Z,21.09
2023-03-05T18:38:49.999Z,21.08
2023-03-05T18:41:27.691Z,21.08
2023-03-05T18:44:01.863Z,21.06
2023-03-05T18:46:34.702Z,21.08
2023-03-05T18:49:05.825Z,21.08
2023-03-05T18:51:41.586Z,21.08
2023-03-05T18:54:12.835Z,21.08
2023-03-05T18:56:44.743Z,21.09
2023-03-05T18:59:16.537Z,21.12
2023-03-05T19:01:50.012Z,21.13
2023-03-05T19:04:20.200Z,21.12
2023-03-05T19:06:48.022Z,21.13
2023-03-05T19:09:21.872Z,21.18
2023-03-05T19:11:53.000Z,21.21
2023-03-05T19:14:24.777Z,21.25
2023-03-05T19:16:56.774Z,21.29
2023-03-05T19:19:25.697Z,21.35
2023-03-05T19:21:58.388Z,21.40
2023-03-05T19:24:37.087Z,21.42
2023-03-05T19:27:09.807Z,21.48
2023-03-05T19:29:46.321Z,21.53
2023-03-05T19:32:18.745Z,21.60
2023-03-05T19:34:47.568Z,21.65
2023-03-05T19:37:19.016Z,21.71
2023-03-05T19:39:49.905Z,21.75
2023-03-05T19:42:28.434Z,21.78
2023-03-05T19:45:00.161Z,21.83
2023-03-05T19:47:29.287Z,21.87
2023-03-05T19:50:20.233Z,21.91
2023-03-05T19:52:54.064Z,21.92
2023-03-05T19:55:29.093Z,21.96
2023-03-05T19:58:07.719Z,21.99
2023-03-05T20:00:43.185Z,22.01
2023-03-05T20:03:12.684Z,22.03
2023-03-05T20:05:42.414Z,22.05
2023-03-05T20:08:17.137Z,22.07
2023-03-05T20:10:52.975Z,22.09
2023-03-05T20:13:27.173Z,22.11
2023-03-05T20:15:55.684Z,22.13
2023-03-05T20:18:28.061Z,22.15
2023-03-05T20:21:03.281Z,22.17
2023-03-05T20:23:36.944Z,22.19
2023-03-05T20:26:11.496Z,22.20
2023-03-05T20:28:47.866Z,22.22
2023-03-05T20:31:27.948Z,22.23
2023-03-05T20:33:58.416Z,22.24
2023-03-05T20:36:26.847Z,22.26
2023-03-05T20:38:55.375Z,22.28
2023-03-05T20:41:25.603Z,22.29
2023-03-05T20:44:05.584Z,22.29
2023-03-05T20:46:42.898Z,22.31
2023-03-05T20:49:13.310Z,22.33
2023-03-05T20:51:53.527Z,22.35
2023-03-05T20:54:27.020Z,22.35
2023-03-05T20:56:58.491Z,22.38
2023-03-05T20:59:28.823Z,22.39
2023-03-05T21:01:56.558Z,22.40
2023-03-05T21:04:27.117Z,22.35
2023-03-05T21:06:54.876Z,22.36
2023-03-05T21:09:22.791Z,22.34
2023-03-05T21:11:53.205Z,22.31
2023-03-05T21:14:21.185Z,22.32
2023-03-05T21:16:54.490Z,22.27
2023-03-05T21:19:25.070Z,22.27
2023-03-05T21:21:58.865Z,22.20
2023-03-05T21:24:26.982Z,22.22
2023-03-05T21:26:58.241Z,22.18
2023-03-05T21:29:26.303Z,22.16
2023-03-05T21:31:56.429Z,22.13
2023-03-05T21:34:23.860Z,22.10
2023-03-05T21:36:54.768Z,22.10
2023-03-05T21:39:28.813Z,22.07
2023-03-05T21:41:59.308Z,22.03
2023-03-05T21:44:29.031Z,22.01
2023-03-05T21:46:56.645Z,22.01
2023-03-05T21:49:27.109Z,21.98
2023-03-05T21:51:54.609Z,21.97
2023-03-05T21:54:27.399Z,21.95
2023-03-05T21:56:59.505Z,21.92
2023-03-05T21:59:30.946Z,21.89
2023-03-05T22:02:01.756Z,21.88
2023-03-05T22:04:30.509Z,21.86
2023-03-05T22:07:02.241Z,21.86
2023-03-05T22:09:36.165Z,21.84
2023-03-05T22:12:10.813Z,21.83
2023-03-05T22:14:43.002Z,21.80
2023-03-05T22:17:14.009Z,21.77
2023-03-05T22:19:44.316Z,21.76
2023-03-05T22:22:21.471Z,21.77
2023-03-05T22:24:54.164Z,21.75
2023-03-05T22:27:31.285Z,21.74
2023-03-05T22:30:04.383Z,21.72
2023-03-05T22:32:36.744Z,21.71
2023-03-05T22:35:07.514Z,21.70
2023-03-05T22:37:40.920Z,21.68
2023-03-05T22:40:14.557Z,21.67
2023-03-05T22:42:45.858Z,21.67
2023-03-05T22:45:16.076Z,21.65
2023-03-05T22:47:49.257Z,21.65
2023-03-05T22:50:30.186Z,21.62
2023-03-05T22:53:00.840Z,21.63
2023-03-05T22:55:32.833Z,21.63
2023-03-05T22:58:04.922Z,21.62
2023-03-05T23:00:39.439Z,21.60
2023-03-05T23:03:15.971Z,21.60
2023-03-05T23:05:46.127Z,21.58
2023-03-05T23:08:16.972Z,21.58
2023-03-05T23:10:48.002Z,21.57
2023-03-05T23:13:18.610Z,21.56
2023-03-05T23:15:53.051Z,21.55
2023-03-05T23:18:20.758Z,21.54
2023-03-05T23:20:51.409Z,21.54
2023-03-05T23:23:19.120Z,21.52
2023-03-05T23:25:57.522Z,21.51
2023-03-05T23:28:25.623Z,21.50
2023-03-05T23:31:07.240Z,21.49
2023-03-05T23:33:38.484Z,21.47
2023-03-05T23:36:11.244Z,21.47
2023-03-05T23:38:47.708Z,21.45
2023-03-05T23:41:17.951Z,21.45
2023-03-05T23:43:48.629Z,21.44
2023-03-05T23:46:21.979Z,21.43
2023-03-05T23:48:58.642Z,21.42
2023-03-05T23:51:26.131Z,21.42
2023-03-05T23:53:55.066Z,21.42
2023-03-05T23:56:32.276Z,21.41
2023-03-05T23:59:05.684Z,21.41
